createdAt,value
2022-09-16T00:02:13.773Z,82.09
2022-09-16T00:05:16.541Z,81.51
2022-09-16T00:08:19.534Z,81.87
2022-09-16T00:11:22.651Z,81.73
2022-09-16T00:14:24.917Z,81.64
2022-09-16T00:17:27.639Z,81.65
2022-09-16T00:20:29.918Z,80.35
2022-09-16T00:23:32.620Z,80.39
2022-09-16T00:26:34.909Z,80.91
2022-09-16T00:29:37.596Z,81.06
2022-09-16T00:32:39.779Z,80.97
2022-09-16T00:35:42.530Z,80.59
2022-09-16T00:38:45.059Z,80.39
2022-09-16T00:41:47.739Z,79.81
2022-09-16T00:44:54.371Z,80.19
2022-09-16T00:48:05.772Z,79.98
2022-09-16T00:51:09.305Z,78.48
2022-09-16T00:54:12.241Z,79.13
2022-09-16T00:57:15.031Z,78.78
2022-09-16T01:00:17.873Z,78.81
2022-09-16T01:03:20.731Z,78.29
2022-09-16T01:06:24.736Z,79.01
2022-09-16T01:09:28.056Z,79.68
2022-09-16T01:12:31.380Z,80.14
2022-09-16T01:15:53.864Z,80.16
2022-09-16T01:19:04.764Z,79.22
2022-09-16T01:22:25.796Z,78.21
2022-09-16T01:25:47.165Z,78.97
2022-09-16T01:29:08.439Z,79.05
2022-09-16T01:32:15.794Z,79.56
2022-09-16T01:35:27.608Z,79.00
2022-09-16T01:38:46.204Z,79.33
2022-09-16T01:41:48.350Z,79.81
2022-09-16T01:44:59.824Z,80.10
2022-09-16T01:48:12.022Z,80.11
2022-09-16T01:51:21.666Z,79.97
2022-09-16T01:54:27.381Z,78.46
2022-09-16T01:57:37.298Z,78.04
2022-09-16T02:00:42.013Z,78.68
2022-09-16T02:03:47.820Z,78.42
2022-09-16T02:06:53.079Z,78.77
2022-09-16T02:09:58.259Z,79.38
2022-09-16T02:13:08.236Z,78.86
2022-09-16T02:16:12.750Z,78.92
2022-09-16T02:19:19.786Z,79.08
2022-09-16T02:22:29.374Z,78.98
2022-09-16T02:25:35.738Z,79.10
2022-09-16T02:28:42.356Z,79.54
2022-09-16T02:31:46.683Z,79.71
2022-09-16T02:34:50.436Z,78.78
2022-09-16T02:37:55.365Z,76.67
2022-09-16T02:40:59.118Z,76.50
2022-09-16T02:44:02.202Z,76.17
2022-09-16T02:47:13.708Z,77.20
2022-09-16T02:50:22.060Z,77.33
2022-09-16T02:53:43.749Z,77.27
2022-09-16T02:56:46.603Z,77.63
2022-09-16T02:59:49.538Z,77.22
2022-09-16T03:02:54.209Z,77.78
2022-09-16T03:06:08.634Z,78.23
2022-09-16T03:09:12.655Z,77.21
2022-09-16T03:12:47.311Z,76.46
2022-09-16T03:15:55.923Z,76.40
2022-09-16T03:19:03.546Z,77.16
2022-09-16T03:22:08.903Z,77.31
2022-09-16T03:25:17.050Z,77.12
2022-09-16T03:28:24.165Z,77.07
2022-09-16T03:31:28.970Z,76.05
2022-09-16T03:34:46.893Z,75.97
2022-09-16T03:37:50.023Z,74.18
2022-09-16T03:40:53.255Z,74.98
2022-09-16T03:44:01.566Z,74.95
2022-09-16T03:47:07.301Z,75.03
2022-09-16T03:50:09.881Z,73.42
2022-09-16T03:53:12.337Z,74.45
2022-09-16T03:56:15.124Z,74.68
2022-09-16T03:59:17.911Z,75.17
2022-09-16T04:02:20.387Z,75.15
2022-09-16T04:05:22.913Z,75.55
2022-09-16T04:08:25.324Z,75.36
2022-09-16T04:11:29.825Z,75.65
2022-09-16T04:14:32.199Z,75.52
2022-09-16T04:17:34.793Z,75.20
2022-09-16T04:20:37.199Z,74.88
2022-09-16T04:23:39.735Z,75.42
2022-09-16T04:26:42.774Z,75.90
2022-09-16T04:29:45.254Z,75.46
2022-09-16T04:32:47.672Z,75.59
2022-09-16T04:35:50.155Z,75.97
2022-09-16T04:38:52.630Z,76.24
2022-09-16T04:41:55.143Z,76.31
2022-09-16T04:44:57.884Z,76.10
2022-09-16T04:48:00.522Z,76.12
2022-09-16T04:51:07.539Z,75.86
2022-09-16T04:54:11.721Z,75.62
2022-09-16T04:57:14.191Z,76.15
2022-09-16T05:00:16.849Z,76.56
2022-09-16T05:03:19.346Z,76.67
2022-09-16T05:06:22.945Z,76.52
2022-09-16T05:09:25.943Z,75.61
2022-09-16T05:12:28.466Z,75.79
2022-09-16T05:15:30.985Z,75.89
2022-09-16T05:18:34.018Z,75.44
2022-09-16T05:21:37.437Z,74.69
2022-09-16T05:24:40.407Z,74.52
2022-09-16T05:27:42.951Z,74.17
2022-09-16T05:30:45.548Z,74.26
2022-09-16T05:33:55.066Z,74.18
2022-09-16T05:36:57.951Z,73.29
2022-09-16T05:40:01.143Z,72.87
2022-09-16T05:43:03.783Z,73.35
2022-09-16T05:46:07.116Z,72.67
2022-09-16T05:49:09.863Z,72.92
2022-09-16T05:52:12.364Z,73.03
2022-09-16T05:55:14.982Z,72.83
2022-09-16T05:58:19.483Z,71.93
2022-09-16T06:01:23.749Z,71.98
2022-09-16T06:04:26.667Z,71.69
2022-09-16T06:07:28.901Z,71.63
2022-09-16T06:10:31.721Z,71.14
2022-09-16T06:13:34.091Z,70.36
2022-09-16T06:16:37.416Z,70.01
2022-09-16T06:19:40.076Z,69.67
2022-09-16T06:22:43.163Z,69.01
2022-09-16T06:25:45.719Z,69.07
2022-09-16T06:28:49.257Z,69.16
2022-09-16T06:31:53.963Z,67.79
2022-09-16T06:34:56.764Z,66.68
2022-09-16T06:38:00.437Z,67.47
2022-09-16T06:41:04.392Z,67.59
2022-09-16T06:44:06.691Z,67.58
2022-09-16T06:47:09.793Z,67.22
2022-09-16T06:50:12.888Z,66.77
2022-09-16T06:53:15.635Z,66.42
2022-09-16T06:56:19.439Z,65.95
2022-09-16T06:59:22.205Z,65.71
2022-09-16T07:02:24.518Z,65.37
2022-09-16T07:05:27.401Z,64.61
2022-09-16T07:08:30.197Z,64.41
2022-09-16T07:11:33.377Z,64.14
2022-09-16T07:14:35.751Z,63.60
2022-09-16T07:17:39.970Z,62.59
2022-09-16T07:20:42.237Z,61.90
2022-09-16T07:23:45.816Z,60.82
2022-09-16T07:26:49.148Z,61.17
2022-09-16T07:29:53.724Z,61.05
2022-09-16T07:32:56.176Z,60.29
2022-09-16T07:36:00.266Z,60.03
2022-09-16T07:39:04.600Z,58.24
2022-09-16T07:42:07.653Z,58.03
2022-09-16T07:45:10.204Z,58.74
2022-09-16T07:48:14.702Z,58.15
2022-09-16T07:51:18.574Z,57.11
2022-09-16T07:54:22.115Z,57.38
2022-09-16T07:57:24.907Z,57.71
2022-09-16T08:00:27.727Z,57.42
2022-09-16T08:03:30.485Z,56.77
2022-09-16T08:06:33.781Z,54.75
2022-09-16T08:09:41.671Z,54.62
2022-09-16T08:12:51.805Z,54.01
2022-09-16T08:15:54.839Z,51.91
2022-09-16T08:18:58.236Z,52.59
2022-09-16T08:22:03.135Z,53.10
2022-09-16T08:25:05.952Z,52.70
2022-09-16T08:28:15.140Z,53.00
2022-09-16T08:31:19.590Z,52.18
2022-09-16T08:34:22.663Z,53.04
2022-09-16T08:37:25.163Z,53.27
2022-09-16T08:40:29.280Z,52.84
2022-09-16T08:43:37.490Z,52.97
2022-09-16T08:46:46.212Z,51.92
2022-09-16T08:49:51.158Z,51.82
2022-09-16T08:52:55.816Z,52.45
2022-09-16T08:55:58.563Z,52.53
2022-09-16T08:59:01.711Z,52.38
2022-09-16T09:02:23.421Z,52.62
2022-09-16T09:05:26.247Z,52.76
2022-09-16T09:08:57.803Z,52.46
2022-09-16T09:12:06.405Z,52.58
2022-09-16T09:15:08.916Z,52.12
2022-09-16T09:18:16.116Z,52.02
2022-09-16T09:21:27.522Z,52.22
2022-09-16T09:24:48.365Z,52.20
2022-09-16T09:28:14.720Z,52.65
2022-09-16T09:31:17.341Z,53.09
2022-09-16T09:34:42.858Z,52.82
2022-09-16T09:37:51.217Z,53.16
2022-09-16T09:40:56.727Z,53.12
2022-09-16T09:44:19.263Z,53.17
2022-09-16T09:47:25.698Z,52.87
2022-09-16T09:50:36.525Z,52.76
2022-09-16T09:53:47.047Z,52.22
2022-09-16T09:56:52.024Z,50.88
2022-09-16T09:59:58.256Z,49.88
2022-09-16T10:03:26.839Z,48.51
2022-09-16T10:06:32.462Z,48.62
2022-09-16T10:09:35.964Z,48.59
2022-09-16T10:12:38.768Z,48.07
2022-09-16T10:15:42.201Z,45.96
2022-09-16T10:18:44.962Z,45.31
2022-09-16T10:21:49.529Z,46.73
2022-09-16T10:24:57.963Z,46.76
2022-09-16T10:28:01.391Z,46.62
2022-09-16T10:31:06.991Z,45.53
2022-09-16T10:34:19.534Z,44.83
2022-09-16T10:37:22.850Z,44.92
2022-09-16T10:40:25.864Z,45.20
2022-09-16T10:43:30.355Z,45.23
2022-09-16T10:46:34.044Z,44.70
2022-09-16T10:49:49.215Z,44.38
2022-09-16T10:52:51.607Z,44.90
2022-09-16T10:55:58.587Z,44.85
2022-09-16T10:59:04.051Z,44.93
2022-09-16T11:02:06.934Z,44.19
2022-09-16T11:05:26.101Z,45.33
2022-09-16T11:08:47.819Z,42.66
2022-09-16T11:12:07.603Z,43.98
2022-09-16T11:15:31.556Z,43.59
2022-09-16T11:18:43.893Z,41.76
2022-09-16T11:22:04.746Z,42.20
2022-09-16T11:25:21.942Z,42.52
2022-09-16T11:28:24.707Z,42.21
2022-09-16T11:31:32.293Z,40.12
2022-09-16T11:34:48.315Z,40.19
2022-09-16T11:38:09.505Z,40.59
2022-09-16T11:41:23.179Z,40.85
2022-09-16T11:44:34.486Z,38.97
2022-09-16T11:47:49.711Z,39.46
2022-09-16T11:50:52.033Z,39.62
2022-09-16T11:53:55.292Z,39.56
2022-09-16T11:57:02.289Z,39.76
2022-09-16T12:00:24.173Z,39.02
2022-09-16T12:03:34.891Z,40.56
2022-09-16T12:06:42.112Z,41.90
2022-09-16T12:10:02.952Z,42.37
2022-09-16T12:13:10.654Z,42.00
2022-09-16T12:16:18.806Z,40.50
2022-09-16T12:19:27.431Z,40.26
2022-09-16T12:22:42.396Z,41.25
2022-09-16T12:26:12.716Z,42.06
2022-09-16T12:29:35.783Z,43.20
2022-09-16T12:32:38.377Z,44.10
2022-09-16T12:36:02.292Z,44.65
2022-09-16T12:39:04.940Z,44.67
2022-09-16T12:42:10.387Z,41.74
2022-09-16T12:45:26.129Z,42.98
2022-09-16T12:48:28.815Z,43.70
2022-09-16T12:51:50.694Z,44.62
2022-09-16T12:55:07.651Z,45.85
2022-09-16T12:58:36.971Z,47.09
2022-09-16T13:01:44.923Z,47.64
2022-09-16T13:04:50.179Z,47.68
2022-09-16T13:07:54.469Z,47.24
2022-09-16T13:11:35.541Z,46.76
2022-09-16T13:14:24.742Z,47.13
2022-09-16T13:17:28.764Z,46.87
2022-09-16T13:20:33.779Z,46.88
2022-09-16T13:23:40.996Z,46.88
2022-09-16T13:26:44.935Z,46.69
2022-09-16T13:29:47.388Z,45.99
2022-09-16T13:32:54.674Z,46.12
2022-09-16T13:36:13.355Z,45.82
2022-09-16T13:39:30.569Z,46.75
2022-09-16T13:42:33.100Z,45.42
2022-09-16T13:45:38.092Z,45.24
2022-09-16T13:48:43.285Z,45.61
2022-09-16T13:51:47.465Z,46.28
2022-09-16T13:55:10.116Z,46.23
2022-09-16T13:58:16.687Z,47.00
2022-09-16T14:01:37.014Z,47.20
2022-09-16T14:05:15.345Z,47.95
2022-09-16T14:08:36.432Z,47.04
2022-09-16T14:11:53.651Z,47.43
2022-09-16T14:14:58.420Z,48.50
2022-09-16T14:18:04.283Z,48.73
2022-09-16T14:21:16.971Z,49.31
2022-09-16T14:24:20.470Z,49.46
2022-09-16T14:27:30.415Z,50.78
2022-09-16T14:30:33.140Z,51.23
2022-09-16T14:33:41.737Z,51.61
2022-09-16T14:36:45.912Z,52.04
2022-09-16T14:39:53.156Z,52.22
2022-09-16T14:43:01.739Z,52.06
2022-09-16T14:46:06.871Z,52.07
2022-09-16T14:49:11.717Z,51.69
2022-09-16T14:52:26.485Z,51.54
2022-09-16T14:55:30.233Z,51.84
2022-09-16T14:58:33.802Z,52.49
2022-09-16T15:01:36.534Z,53.23
2022-09-16T15:04:40.865Z,53.55
2022-09-16T15:08:02.531Z,53.31
2022-09-16T15:11:24.472Z,53.98
2022-09-16T15:14:38.874Z,56.62
2022-09-16T15:17:41.797Z,57.47
2022-09-16T15:20:52.004Z,57.74
2022-09-16T15:24:15.956Z,58.70
2022-09-16T15:27:23.079Z,59.53
2022-09-16T15:30:26.129Z,60.77
2022-09-16T15:33:36.418Z,61.97
2022-09-16T15:36:39.849Z,62.05
2022-09-16T15:39:42.637Z,61.93
2022-09-16T15:42:45.041Z,62.17
2022-09-16T15:46:01.836Z,62.10
2022-09-16T15:49:11.414Z,62.17
2022-09-16T15:52:16.291Z,62.56
2022-09-16T15:55:38.912Z,62.91
2022-09-16T15:58:43.299Z,62.73
2022-09-16T16:01:52.537Z,62.96
2022-09-16T16:05:05.694Z,63.12
2022-09-16T16:08:10.067Z,63.04
2022-09-16T16:11:14.242Z,63.33
2022-09-16T16:14:17.025Z,62.83
2022-09-16T16:17:21.326Z,62.98
2022-09-16T16:20:24.159Z,62.94
2022-09-16T16:23:27.071Z,63.48
2022-09-16T16:26:29.311Z,63.52
2022-09-16T16:29:32.063Z,64.08
2022-09-16T16:32:35.102Z,63.86
2022-09-16T16:35:37.883Z,64.30
2022-09-16T16:38:40.463Z,64.37
2022-09-16T16:41:43.164Z,64.60
2022-09-16T16:44:45.383Z,63.78
2022-09-16T16:47:48.234Z,63.98
2022-09-16T16:50:58.226Z,64.17
2022-09-16T16:54:01.525Z,64.25
2022-09-16T16:57:04.040Z,64.55
2022-09-16T17:00:07.495Z,64.46
2022-09-16T17:03:09.810Z,64.56
2022-09-16T17:06:13.200Z,64.88
2022-09-16T17:09:16.990Z,65.25
2022-09-16T17:12:20.312Z,65.14
2022-09-16T17:15:22.551Z,65.49
2022-09-16T17:18:25.240Z,64.67
2022-09-16T17:21:29.055Z,64.96
2022-09-16T17:24:31.754Z,64.81
2022-09-16T17:27:33.938Z,64.96
2022-09-16T17:30:36.650Z,64.44
2022-09-16T17:33:38.945Z,64.25
2022-09-16T17:36:43.833Z,64.54
2022-09-16T17:39:46.034Z,65.01
2022-09-16T17:42:52.106Z,66.04
2022-09-16T17:45:55.840Z,66.56
2022-09-16T17:49:06.394Z,66.28
2022-09-16T17:52:08.627Z,66.15
2022-09-16T17:55:12.000Z,65.84
2022-09-16T17:58:15.548Z,66.43
2022-09-16T18:01:22.130Z,66.71
2022-09-16T18:04:25.387Z,66.61
2022-09-16T18:07:27.875Z,65.62
2022-09-16T18:10:31.019Z,66.50
2022-09-16T18:13:33.742Z,66.82
2022-09-16T18:16:36.400Z,66.68
2022-09-16T18:19:40.485Z,66.52
2022-09-16T18:22:43.007Z,66.27
2022-09-16T18:25:45.473Z,66.45
2022-09-16T18:29:09.187Z,66.23
2022-09-16T18:32:11.869Z,66.44
2022-09-16T18:35:15.070Z,66.64
2022-09-16T18:38:17.963Z,66.74
2022-09-16T18:41:22.448Z,66.62
2022-09-16T18:44:28.223Z,66.59
2022-09-16T18:47:30.755Z,66.36
2022-09-16T18:50:33.889Z,66.25
2022-09-16T18:53:36.416Z,66.19
2022-09-16T18:56:39.635Z,66.11
2022-09-16T18:59:42.151Z,65.45
2022-09-16T19:02:44.661Z,64.66
2022-09-16T19:05:56.664Z,65.30
2022-09-16T19:08:59.560Z,65.31
2022-09-16T19:12:02.493Z,65.02
2022-09-16T19:15:05.226Z,63.59
2022-09-16T19:18:07.942Z,64.48
2022-09-16T19:21:18.146Z,65.73
2022-09-16T19:24:21.997Z,66.19
2022-09-16T19:27:24.882Z,65.11
2022-09-16T19:30:27.443Z,65.01
2022-09-16T19:33:29.969Z,65.58
2022-09-16T19:36:33.223Z,65.67
2022-09-16T19:39:36.812Z,65.66
2022-09-16T19:42:39.372Z,66.10
2022-09-16T19:45:41.972Z,66.26
2022-09-16T19:48:45.993Z,66.06
2022-09-16T19:51:49.425Z,66.15
2022-09-16T19:54:52.188Z,65.96
2022-09-16T19:57:54.612Z,65.84
2022-09-16T20:00:58.365Z,65.84
2022-09-16T20:04:02.171Z,65.75
2022-09-16T20:07:05.818Z,65.45
2022-09-16T20:10:10.985Z,65.17
2022-09-16T20:13:14.916Z,65.01
2022-09-16T20:16:18.698Z,64.80
2022-09-16T20:19:21.277Z,64.69
2022-09-16T20:22:24.097Z,63.86
2022-09-16T20:25:26.660Z,63.92
2022-09-16T20:28:42.046Z,62.53
2022-09-16T20:31:45.371Z,63.17
2022-09-16T20:34:48.115Z,63.27
2022-09-16T20:37:50.303Z,63.58
2022-09-16T20:40:53.133Z,63.66
2022-09-16T20:43:55.468Z,63.80
2022-09-16T20:46:58.187Z,63.89
2022-09-16T20:50:00.524Z,64.29
2022-09-16T20:53:03.212Z,64.24
2022-09-16T20:56:13.493Z,64.02
2022-09-16T20:59:17.542Z,64.27
2022-09-16T21:02:20.228Z,64.23
2022-09-16T21:05:22.987Z,64.23
2022-09-16T21:08:25.225Z,64.00
2022-09-16T21:11:29.951Z,63.47
2022-09-16T21:14:32.456Z,63.87
2022-09-16T21:17:35.378Z,63.92
2022-09-16T21:20:37.598Z,64.05
2022-09-16T21:23:40.617Z,64.21
2022-09-16T21:26:44.226Z,64.26
2022-09-16T21:29:47.028Z,64.48
2022-09-16T21:32:49.264Z,65.22
2022-09-16T21:35:52.634Z,66.15
2022-09-16T21:38:55.075Z,66.31
2022-09-16T21:41:59.376Z,66.78
2022-09-16T21:45:02.720Z,67.47
2022-09-16T21:48:05.529Z,67.76
2022-09-16T21:51:08.673Z,68.30
2022-09-16T21:54:11.445Z,68.78
2022-09-16T21:57:14.489Z,69.57
2022-09-16T22:00:17.668Z,70.19
2022-09-16T22:03:20.260Z,70.42
2022-09-16T22:06:23.061Z,70.63
2022-09-16T22:09:25.551Z,71.07
2022-09-16T22:12:28.357Z,71.45
2022-09-16T22:15:30.843Z,71.66
2022-09-16T22:18:37.507Z,72.15
2022-09-16T22:21:41.555Z,71.28
2022-09-16T22:24:43.948Z,71.35
2022-09-16T22:27:46.416Z,72.35
2022-09-16T22:30:48.828Z,71.43
2022-09-16T22:33:52.644Z,72.00
2022-09-16T22:36:55.139Z,72.12
2022-09-16T22:39:57.824Z,71.80
2022-09-16T22:43:00.434Z,72.07
2022-09-16T22:46:08.248Z,71.83
2022-09-16T22:49:11.021Z,72.01
2022-09-16T22:52:13.564Z,72.47
2022-09-16T22:55:16.064Z,70.72
2022-09-16T22:58:18.565Z,71.58
2022-09-16T23:01:23.339Z,72.27
2022-09-16T23:04:27.342Z,71.91
2022-09-16T23:07:29.933Z,71.19
2022-09-16T23:10:36.388Z,71.45
2022-09-16T23:13:42.005Z,71.45
2022-09-16T23:16:44.727Z,71.83
2022-09-16T23:19:47.137Z,71.51
2022-09-16T23:22:49.656Z,72.09
2022-09-16T23:25:52.225Z,73.14
2022-09-16T23:28:56.073Z,72.43
2022-09-16T23:32:02.606Z,72.43
2022-09-16T23:35:05.265Z,74.02
2022-09-16T23:38:07.758Z,74.77
2022-09-16T23:41:12.083Z,74.94
2022-09-16T23:44:15.685Z,74.66
2022-09-16T23:47:18.256Z,75.35
2022-09-16T23:50:22.512Z,75.77
2022-09-16T23:53:25.687Z,75.58
2022-09-16T23:56:28.267Z,76.27
2022-09-16T23:59:30.911Z,75.85
